createdAt,value
2022-12-11T00:02:06.424Z,31.70
2022-12-11T00:04:35.928Z,38.87
2022-12-11T00:07:04.321Z,26.38
2022-12-11T00:09:33.236Z,25.75
2022-12-11T00:12:02.569Z,24.70
2022-12-11T00:14:32.461Z,25.43
2022-12-11T00:17:02.501Z,25.07
2022-12-11T00:19:31.363Z,28.85
2022-12-11T00:21:59.825Z,28.63
2022-12-11T00:24:28.615Z,26.83
2022-12-11T00:26:56.984Z,29.67
2022-12-11T00:29:25.541Z,28.80
2022-12-11T00:31:53.972Z,24.90
2022-12-11T00:34:24.246Z,24.20
2022-12-11T00:36:52.972Z,22.98
2022-12-11T00:39:21.311Z,28.55
2022-12-11T00:41:49.637Z,29.03
2022-12-11T00:44:18.422Z,24.77
2022-12-11T00:46:46.755Z,28.43
2022-12-11T00:49:15.460Z,25.17
2022-12-11T00:51:45.153Z,26.55
2022-12-11T00:54:13.840Z,29.40
2022-12-11T00:56:42.301Z,28.02
2022-12-11T00:59:11.050Z,27.45
2022-12-11T01:01:39.247Z,25.48
2022-12-11T01:04:08.103Z,26.27
2022-12-11T01:06:36.365Z,28.77
2022-12-11T01:09:23.644Z,24.90
2022-12-11T01:11:51.891Z,28.13
2022-12-11T01:14:20.654Z,23.20
2022-12-11T01:16:48.981Z,32.67
2022-12-11T01:19:17.722Z,21.40
2022-12-11T01:21:46.050Z,25.02
2022-12-11T01:24:15.809Z,22.27
2022-12-11T01:26:43.944Z,28.30
2022-12-11T01:29:12.671Z,26.08
2022-12-11T01:31:40.750Z,26.63
2022-12-11T01:34:09.139Z,25.60
2022-12-11T01:36:37.225Z,19.77
2022-12-11T01:39:05.592Z,25.90
2022-12-11T01:41:35.069Z,27.40
2022-12-11T01:44:06.118Z,25.42
2022-12-11T01:46:35.716Z,26.30
2022-12-11T01:49:06.972Z,25.70
2022-12-11T01:51:41.239Z,23.75
2022-12-11T01:54:13.420Z,27.38
2022-12-11T01:56:45.350Z,29.02
2022-12-11T01:59:19.316Z,25.20
2022-12-11T02:01:51.469Z,28.42
2022-12-11T02:04:21.280Z,27.17
2022-12-11T02:06:52.011Z,29.48
2022-12-11T02:09:23.588Z,23.85
2022-12-11T02:12:03.065Z,27.17
2022-12-11T02:14:37.863Z,26.67
2022-12-11T02:17:13.196Z,33.08
2022-12-11T02:19:59.370Z,28.17
2022-12-11T02:22:46.127Z,30.48
2022-12-11T02:25:22.463Z,31.52
2022-12-11T02:27:56.850Z,33.83
2022-12-11T02:30:27.114Z,28.10
2022-12-11T02:32:57.611Z,34.00
2022-12-11T02:35:30.682Z,30.33
2022-12-11T02:38:04.146Z,32.83
2022-12-11T02:40:37.221Z,29.38
2022-12-11T02:43:09.183Z,26.63
2022-12-11T02:45:42.485Z,32.38
2022-12-11T02:48:13.363Z,27.83
2022-12-11T02:50:47.316Z,34.90
2022-12-11T02:53:19.550Z,32.20
2022-12-11T02:55:52.530Z,38.80
2022-12-11T02:58:25.677Z,33.93
2022-12-11T03:00:55.484Z,33.73
2022-12-11T03:03:24.260Z,33.93
2022-12-11T03:05:52.394Z,29.90
2022-12-11T03:08:20.841Z,29.13
2022-12-11T03:10:49.640Z,34.53
2022-12-11T03:13:21.767Z,32.42
2022-12-11T03:16:12.853Z,35.95
2022-12-11T03:18:50.431Z,31.20
2022-12-11T03:21:26.079Z,30.83
2022-12-11T03:24:03.067Z,29.92
2022-12-11T03:26:34.100Z,30.55
2022-12-11T03:29:05.764Z,27.83
2022-12-11T03:31:42.271Z,30.88
2022-12-11T03:34:19.517Z,29.67
2022-12-11T03:36:51.664Z,27.17
2022-12-11T03:39:26.958Z,25.98
2022-12-11T03:41:57.324Z,25.45
2022-12-11T03:44:26.284Z,27.88
2022-12-11T03:46:58.806Z,23.20
2022-12-11T03:49:31.876Z,23.27
2022-12-11T03:52:02.803Z,28.08
2022-12-11T03:54:32.019Z,27.98
2022-12-11T03:57:04.560Z,28.90
2022-12-11T03:59:32.816Z,30.75
2022-12-11T04:02:03.327Z,25.70
2022-12-11T04:04:31.528Z,29.05
2022-12-11T04:06:59.777Z,22.47
2022-12-11T04:09:28.015Z,26.38
2022-12-11T04:11:56.544Z,31.93
2022-12-11T04:14:42.020Z,25.97
2022-12-11T04:17:12.170Z,26.42
2022-12-11T04:19:57.860Z,32.67
2022-12-11T04:22:43.395Z,28.73
2022-12-11T04:25:11.661Z,25.33
2022-12-11T04:27:53.481Z,30.93
2022-12-11T04:30:26.924Z,25.90
2022-12-11T04:32:59.146Z,26.05
2022-12-11T04:35:27.048Z,25.00
2022-12-11T04:37:54.917Z,33.43
2022-12-11T04:40:23.526Z,30.07
2022-12-11T04:42:51.474Z,25.67
2022-12-11T04:45:20.155Z,32.80
2022-12-11T04:47:48.557Z,31.53
2022-12-11T04:50:18.276Z,25.13
2022-12-11T04:52:46.833Z,28.50
2022-12-11T04:55:14.933Z,26.85
2022-12-11T04:57:42.841Z,26.42
2022-12-11T05:00:13.899Z,27.85
2022-12-11T05:02:43.436Z,30.90
2022-12-11T05:05:12.933Z,30.17
2022-12-11T05:07:43.225Z,26.60
2022-12-11T05:10:11.469Z,31.83
2022-12-11T05:12:39.428Z,31.37
2022-12-11T05:15:09.257Z,31.13
2022-12-11T05:17:37.485Z,32.47
2022-12-11T05:20:06.101Z,36.23
2022-12-11T05:22:34.844Z,29.47
2022-12-11T05:25:04.279Z,26.30
2022-12-11T05:27:32.611Z,41.80
2022-12-11T05:30:01.098Z,28.60
2022-12-11T05:32:30.077Z,33.85
2022-12-11T05:34:58.337Z,28.37
2022-12-11T05:37:26.857Z,31.20
2022-12-11T05:39:54.786Z,32.10
2022-12-11T05:42:28.562Z,28.40
2022-12-11T05:44:57.636Z,29.43
2022-12-11T05:47:25.930Z,30.00
2022-12-11T05:49:54.048Z,29.10
2022-12-11T05:52:33.568Z,30.47
2022-12-11T05:55:01.690Z,30.53
2022-12-11T05:57:31.067Z,26.47
2022-12-11T05:59:59.659Z,24.97
2022-12-11T06:02:27.807Z,28.47
2022-12-11T06:04:55.955Z,30.77
2022-12-11T06:07:24.363Z,26.27
2022-12-11T06:09:52.408Z,28.42
2022-12-11T06:12:20.454Z,26.73
2022-12-11T06:14:50.247Z,30.40
2022-12-11T06:17:18.194Z,31.37
2022-12-11T06:19:46.320Z,28.70
2022-12-11T06:22:14.771Z,30.77
2022-12-11T06:24:42.924Z,27.90
2022-12-11T06:27:11.036Z,31.43
2022-12-11T06:29:39.474Z,26.70
2022-12-11T06:32:08.896Z,26.07
2022-12-11T06:34:36.956Z,34.97
2022-12-11T06:37:05.428Z,26.83
2022-12-11T06:39:33.437Z,21.90
2022-12-11T06:42:01.876Z,26.93
2022-12-11T06:44:29.998Z,24.40
2022-12-11T06:46:58.070Z,26.00
2022-12-11T06:49:27.962Z,22.90
2022-12-11T06:51:55.858Z,28.23
2022-12-11T06:54:27.456Z,25.55
2022-12-11T06:56:55.634Z,31.03
2022-12-11T06:59:23.607Z,26.13
2022-12-11T07:01:52.395Z,28.20
2022-12-11T07:04:20.471Z,33.10
2022-12-11T07:06:50.374Z,36.87
2022-12-11T07:09:18.854Z,32.10
2022-12-11T07:11:46.849Z,31.27
2022-12-11T07:14:14.640Z,31.23
2022-12-11T07:16:43.211Z,28.43
2022-12-11T07:19:11.249Z,29.80
2022-12-11T07:21:39.629Z,27.63
2022-12-11T07:24:10.313Z,30.03
2022-12-11T07:26:38.471Z,30.60
2022-12-11T07:29:06.712Z,27.43
2022-12-11T07:31:35.431Z,27.70
2022-12-11T07:34:06.138Z,24.73
2022-12-11T07:36:36.567Z,26.87
2022-12-11T07:39:05.652Z,24.93
2022-12-11T07:41:35.268Z,28.40
2022-12-11T07:44:07.072Z,25.17
2022-12-11T07:46:35.634Z,22.57
2022-12-11T07:49:03.812Z,23.77
2022-12-11T07:51:34.026Z,24.67
2022-12-11T07:54:04.162Z,23.53
2022-12-11T07:56:35.869Z,24.60
2022-12-11T07:59:05.662Z,29.10
2022-12-11T08:01:37.084Z,23.73
2022-12-11T08:04:06.656Z,24.37
2022-12-11T08:06:37.087Z,19.87
2022-12-11T08:09:15.981Z,32.20
2022-12-11T08:11:50.445Z,21.40
2022-12-11T08:14:18.520Z,27.33
2022-12-11T08:16:46.611Z,25.90
2022-12-11T08:19:15.938Z,28.00
2022-12-11T08:21:44.061Z,23.13
2022-12-11T08:24:12.182Z,26.17
2022-12-11T08:26:41.194Z,25.50
2022-12-11T08:29:11.452Z,26.70
2022-12-11T08:31:41.148Z,24.43
2022-12-11T08:34:09.265Z,24.33
2022-12-11T08:36:37.985Z,22.53
2022-12-11T08:39:06.092Z,23.50
2022-12-11T08:41:34.739Z,21.20
2022-12-11T08:44:05.470Z,24.93
2022-12-11T08:46:36.059Z,23.17
2022-12-11T08:49:04.812Z,22.53
2022-12-11T08:51:33.345Z,25.70
2022-12-11T08:54:02.698Z,21.73
2022-12-11T08:56:31.966Z,26.57
2022-12-11T08:59:02.081Z,23.70
2022-12-11T09:01:30.363Z,21.93
2022-12-11T09:04:00.579Z,28.17
2022-12-11T09:06:31.061Z,23.40
2022-12-11T09:09:02.046Z,21.10
2022-12-11T09:11:33.132Z,28.50
2022-12-11T09:14:07.275Z,25.00
2022-12-11T09:16:37.853Z,23.13
2022-12-11T09:19:09.914Z,20.93
2022-12-11T09:21:38.519Z,23.60
2022-12-11T09:24:07.497Z,23.53
2022-12-11T09:26:36.587Z,18.70
2022-12-11T09:29:08.390Z,22.60
2022-12-11T09:31:38.747Z,20.87
2022-12-11T09:34:11.509Z,22.83
2022-12-11T09:36:40.683Z,21.30
2022-12-11T09:39:10.302Z,21.27
2022-12-11T09:41:40.657Z,25.73
2022-12-11T09:44:21.107Z,22.00
2022-12-11T09:46:50.320Z,24.13
2022-12-11T09:49:35.031Z,24.00
2022-12-11T09:52:11.430Z,21.90
2022-12-11T09:54:44.587Z,20.63
2022-12-11T09:57:33.649Z,16.87
2022-12-11T10:00:11.916Z,21.40
2022-12-11T10:02:54.918Z,20.10
2022-12-11T10:05:32.698Z,20.83
2022-12-11T10:08:11.251Z,17.93
2022-12-11T10:10:45.006Z,20.10
2022-12-11T10:13:23.822Z,17.60
2022-12-11T10:15:56.715Z,19.90
2022-12-11T10:18:28.270Z,17.07
2022-12-11T10:21:02.572Z,17.47
2022-12-11T10:23:35.964Z,21.90
2022-12-11T10:26:08.156Z,17.30
2022-12-11T10:28:37.318Z,19.80
2022-12-11T10:31:14.773Z,20.50
2022-12-11T10:48:54.664Z,18.17
2022-12-11T10:51:25.587Z,16.60
2022-12-11T10:53:57.176Z,15.40
2022-12-11T10:56:29.614Z,11.40
2022-12-11T10:59:00.676Z,22.13
2022-12-11T11:01:32.627Z,17.90
2022-12-11T11:04:07.538Z,18.77
2022-12-11T11:06:36.447Z,15.77
2022-12-11T11:09:08.228Z,15.77
2022-12-11T11:11:39.539Z,20.37
2022-12-11T11:14:14.179Z,19.23
2022-12-11T11:16:44.285Z,20.80
2022-12-11T11:19:22.020Z,21.40
2022-12-11T11:21:53.618Z,19.20
2022-12-11T11:24:30.572Z,28.60
2022-12-11T11:27:14.523Z,18.30
2022-12-11T11:29:47.733Z,19.17
2022-12-11T11:32:24.293Z,26.47
2022-12-11T11:35:08.585Z,19.93
2022-12-11T11:37:36.483Z,23.80
2022-12-11T11:40:09.897Z,23.27
2022-12-11T11:42:44.170Z,24.43
2022-12-11T11:45:17.801Z,25.10
2022-12-11T11:47:52.401Z,22.40
2022-12-11T11:50:28.952Z,38.60
2022-12-11T11:53:03.674Z,25.93
2022-12-11T11:55:44.359Z,24.90
2022-12-11T11:58:19.427Z,23.03
2022-12-11T12:00:48.188Z,22.93
2022-12-11T12:03:19.846Z,26.37
2022-12-11T12:05:57.229Z,21.00
2022-12-11T12:08:39.455Z,22.43
2022-12-11T12:11:17.215Z,20.57
2022-12-11T12:13:57.379Z,19.30
2022-12-11T12:19:38.297Z,24.37
2022-12-11T12:22:21.290Z,23.83
2022-12-11T12:25:01.882Z,22.83
2022-12-11T12:27:54.029Z,21.77
2022-12-11T12:30:23.909Z,28.27
2022-12-11T12:33:13.130Z,27.47
2022-12-11T12:35:51.594Z,25.77
2022-12-11T12:38:27.118Z,23.87
2022-12-11T12:41:04.729Z,23.87
2022-12-11T12:43:49.795Z,24.00
2022-12-11T12:46:30.404Z,23.00
2022-12-11T12:49:01.590Z,25.20
2022-12-11T12:51:31.630Z,18.80
2022-12-11T12:54:11.979Z,20.70
2022-12-11T12:56:44.311Z,20.57
2022-12-11T12:59:22.164Z,21.13
2022-12-11T13:01:55.542Z,23.87
2022-12-11T13:04:55.536Z,22.33
2022-12-11T13:07:30.451Z,23.75
2022-12-11T13:10:08.821Z,20.17
2022-12-11T13:12:44.622Z,20.47
2022-12-11T13:15:37.280Z,27.60
2022-12-11T13:18:27.267Z,26.47
2022-12-11T13:20:55.642Z,19.83
2022-12-11T13:23:30.495Z,21.30
2022-12-11T13:26:02.325Z,20.13
2022-12-11T13:28:47.605Z,22.07
2022-12-11T13:31:40.578Z,17.90
2022-12-11T13:34:16.710Z,16.57
2022-12-11T13:36:49.796Z,17.57
2022-12-11T13:39:21.290Z,14.33
2022-12-11T13:41:56.191Z,17.57
2022-12-11T13:44:28.143Z,16.23
2022-12-11T13:46:59.489Z,17.08
2022-12-11T13:49:31.658Z,18.92
2022-12-11T13:52:01.088Z,14.13
2022-12-11T13:54:30.979Z,19.67
2022-12-11T13:57:14.600Z,16.60
2022-12-11T13:59:45.256Z,17.10
2022-12-11T14:02:20.353Z,16.60
2022-12-11T14:04:51.457Z,17.70
2022-12-11T14:07:26.356Z,25.20
2022-12-11T14:10:01.082Z,18.05
2022-12-11T14:12:32.982Z,18.40
2022-12-11T14:15:03.622Z,14.55
2022-12-11T14:17:34.502Z,23.42
2022-12-11T14:20:07.573Z,19.67
2022-12-11T14:22:37.009Z,19.45
2022-12-11T14:25:22.321Z,16.60
2022-12-11T14:27:55.048Z,16.15
2022-12-11T14:30:25.692Z,18.27
2022-12-11T14:32:57.970Z,16.60
2022-12-11T14:35:37.073Z,19.33
2022-12-11T14:38:12.874Z,18.20
2022-12-11T14:40:46.458Z,28.17
2022-12-11T14:43:25.201Z,20.15
2022-12-11T14:45:59.187Z,24.52
2022-12-11T14:48:32.263Z,20.93
2022-12-11T14:51:03.223Z,25.13
2022-12-11T14:53:35.368Z,21.33
2022-12-11T14:56:06.521Z,21.10
2022-12-11T14:58:45.179Z,23.23
2022-12-11T15:01:25.106Z,24.97
2022-12-11T15:04:04.305Z,19.50
2022-12-11T15:06:35.183Z,25.67
2022-12-11T15:09:21.023Z,25.00
2022-12-11T15:11:52.296Z,22.10
2022-12-11T15:14:24.325Z,23.77
2022-12-11T15:16:56.141Z,25.00
2022-12-11T15:19:30.137Z,25.95
2022-12-11T15:22:04.340Z,20.10
2022-12-11T15:24:39.702Z,27.00
2022-12-11T15:27:16.433Z,31.20
2022-12-11T15:29:46.502Z,25.50
2022-12-11T15:32:21.191Z,38.50
2022-12-11T15:34:51.353Z,25.23
2022-12-11T15:37:24.710Z,30.70
